createdAt,value
2023-01-29T00:00:12.214Z,49.28
2023-01-29T00:01:47.085Z,52.33
2023-01-29T00:03:19.218Z,53.97
2023-01-29T00:04:51.293Z,49.88
2023-01-29T00:06:26.196Z,44.22
2023-01-29T00:07:58.244Z,50.40
2023-01-29T00:09:31.630Z,52.88
2023-01-29T00:11:05.851Z,55.90
2023-01-29T00:12:37.903Z,51.00
2023-01-29T00:14:10.081Z,51.55
2023-01-29T00:15:42.274Z,51.33
2023-01-29T00:17:14.392Z,55.97
2023-01-29T00:18:46.806Z,54.13
2023-01-29T00:20:19.442Z,55.08
2023-01-29T00:21:51.626Z,49.78
2023-01-29T00:23:23.824Z,56.67
2023-01-29T00:24:55.781Z,53.83
2023-01-29T00:26:28.133Z,55.83
2023-01-29T00:28:00.123Z,41.75
2023-01-29T00:29:32.122Z,49.40
2023-01-29T00:31:12.279Z,53.17
2023-01-29T00:32:44.292Z,49.50
2023-01-29T00:34:16.325Z,50.55
2023-01-29T00:35:48.497Z,52.33
2023-01-29T00:37:20.487Z,52.05
2023-01-29T00:38:58.992Z,54.57
2023-01-29T00:40:50.974Z,53.75
2023-01-29T00:42:41.505Z,56.08
2023-01-29T00:44:34.685Z,53.83
2023-01-29T00:46:06.814Z,52.28
2023-01-29T00:47:38.838Z,54.05
2023-01-29T00:49:10.869Z,52.03
2023-01-29T00:50:42.791Z,50.90
2023-01-29T00:52:35.106Z,57.42
2023-01-29T00:54:09.696Z,53.05
2023-01-29T00:55:41.811Z,53.60
2023-01-29T00:57:13.719Z,51.70
2023-01-29T00:58:45.689Z,51.07
2023-01-29T01:00:19.377Z,56.63
2023-01-29T01:02:10.008Z,52.70
2023-01-29T01:03:46.235Z,55.55
2023-01-29T01:05:19.217Z,51.72
2023-01-29T01:06:51.172Z,55.28
2023-01-29T01:08:41.339Z,53.17
2023-01-29T01:10:22.831Z,51.35
2023-01-29T01:11:54.977Z,55.13
2023-01-29T01:13:27.298Z,55.17
2023-01-29T01:14:59.299Z,58.00
2023-01-29T01:16:31.509Z,55.80
2023-01-29T01:18:04.058Z,52.13
2023-01-29T01:19:36.461Z,51.25
2023-01-29T01:21:08.780Z,40.85
2023-01-29T01:22:40.907Z,39.97
2023-01-29T01:24:13.413Z,46.83
2023-01-29T01:25:46.165Z,45.60
2023-01-29T01:27:19.789Z,47.20
2023-01-29T01:28:52.187Z,50.45
2023-01-29T01:30:24.747Z,53.28
2023-01-29T01:31:56.763Z,50.78
2023-01-29T01:33:29.247Z,50.45
2023-01-29T01:35:01.187Z,43.75
2023-01-29T01:36:33.118Z,48.03
2023-01-29T01:38:05.253Z,39.13
2023-01-29T01:39:37.399Z,57.15
2023-01-29T01:41:09.355Z,50.33
2023-01-29T01:42:41.335Z,55.20
2023-01-29T01:44:50.817Z,48.53
2023-01-29T01:46:23.376Z,52.15
2023-01-29T01:49:41.805Z,46.45
2023-01-29T01:51:14.054Z,53.97
2023-01-29T01:52:55.117Z,52.67
2023-01-29T01:54:31.757Z,51.80
2023-01-29T01:56:09.156Z,51.20
2023-01-29T01:57:42.702Z,53.67
2023-01-29T01:59:17.094Z,55.28
2023-01-29T02:00:49.312Z,55.13
2023-01-29T02:02:40.102Z,52.83
2023-01-29T02:04:36.497Z,54.47
2023-01-29T02:06:27.809Z,51.53
2023-01-29T02:08:18.614Z,54.50
2023-01-29T02:09:53.827Z,51.88
2023-01-29T02:11:26.642Z,51.00
2023-01-29T02:12:58.662Z,47.70
2023-01-29T02:14:32.199Z,36.67
2023-01-29T02:16:04.347Z,49.78
2023-01-29T02:17:39.549Z,55.05
2023-01-29T02:19:33.450Z,55.15
2023-01-29T02:21:25.509Z,54.58
2023-01-29T02:23:27.301Z,53.20
2023-01-29T02:25:31.793Z,50.28
2023-01-29T02:27:21.417Z,51.30
2023-01-29T02:29:22.645Z,54.88
2023-01-29T02:31:09.656Z,54.60
2023-01-29T02:32:58.886Z,49.50
2023-01-29T02:35:05.355Z,49.67
2023-01-29T02:37:01.781Z,50.00
2023-01-29T02:38:38.810Z,52.95
2023-01-29T02:40:37.287Z,50.72
2023-01-29T02:42:15.477Z,51.47
2023-01-29T02:43:52.337Z,56.45
2023-01-29T02:45:45.313Z,53.35
2023-01-29T02:47:22.394Z,41.53
2023-01-29T02:49:06.308Z,51.72
2023-01-29T02:50:46.890Z,49.57
2023-01-29T02:52:23.020Z,51.13
2023-01-29T02:54:23.440Z,60.35
2023-01-29T02:56:11.958Z,54.17
2023-01-29T02:57:46.747Z,50.47
2023-01-29T02:59:24.979Z,53.58
2023-01-29T03:01:01.097Z,53.97
2023-01-29T03:02:36.031Z,51.83
2023-01-29T03:04:12.079Z,59.13
2023-01-29T03:05:53.558Z,52.10
2023-01-29T03:09:47.448Z,39.92
2023-01-29T03:11:19.635Z,52.70
2023-01-29T03:13:00.894Z,55.10
2023-01-29T03:14:54.501Z,53.00
2023-01-29T03:16:37.317Z,53.28
2023-01-29T03:18:16.010Z,51.45
2023-01-29T03:19:49.437Z,56.67
2023-01-29T03:22:00.549Z,56.20
2023-01-29T03:23:54.307Z,55.50
2023-01-29T03:25:47.066Z,61.78
2023-01-29T03:27:49.169Z,60.38
2023-01-29T03:29:42.320Z,58.97
2023-01-29T03:31:34.370Z,54.85
2023-01-29T03:33:11.759Z,55.65
2023-01-29T03:34:48.658Z,57.70
2023-01-29T03:36:38.134Z,54.22
2023-01-29T03:38:11.519Z,54.30
2023-01-29T03:39:43.568Z,57.03
2023-01-29T03:41:27.219Z,57.30
2023-01-29T03:43:10.526Z,55.88
2023-01-29T03:44:57.709Z,54.30
2023-01-29T03:46:40.959Z,58.50
2023-01-29T03:48:29.575Z,57.95
2023-01-29T03:50:09.673Z,54.80
2023-01-29T03:52:05.071Z,54.35
2023-01-29T03:53:51.174Z,57.00
2023-01-29T03:55:29.363Z,54.03
2023-01-29T03:57:33.782Z,56.10
2023-01-29T03:59:28.654Z,55.35
2023-01-29T04:01:23.376Z,59.95
2023-01-29T04:03:10.120Z,59.55
2023-01-29T04:04:50.647Z,56.33
2023-01-29T04:06:33.946Z,53.92
2023-01-29T04:08:13.274Z,59.72
2023-01-29T04:09:50.260Z,57.80
2023-01-29T04:11:23.311Z,59.17
2023-01-29T04:13:01.308Z,57.25
2023-01-29T04:14:33.835Z,57.95
2023-01-29T04:17:59.150Z,53.85
2023-01-29T04:19:44.231Z,56.75
2023-01-29T04:21:17.264Z,64.47
2023-01-29T04:22:50.647Z,64.68
2023-01-29T04:24:22.943Z,60.88
2023-01-29T04:26:38.980Z,63.08
2023-01-29T04:28:21.770Z,58.25
2023-01-29T04:30:31.273Z,54.63
2023-01-29T04:32:25.354Z,64.78
2023-01-29T04:34:12.116Z,57.60
2023-01-29T04:35:49.933Z,59.00
2023-01-29T04:37:36.702Z,61.13
2023-01-29T04:39:22.688Z,60.35
2023-01-29T04:41:00.685Z,63.72
2023-01-29T04:42:44.763Z,58.50
2023-01-29T04:44:24.108Z,63.45
2023-01-29T04:46:04.867Z,63.50
2023-01-29T04:47:48.755Z,59.55
2023-01-29T04:49:24.081Z,65.25
2023-01-29T04:51:23.225Z,63.67
2023-01-29T04:53:10.741Z,66.32
2023-01-29T04:54:56.149Z,58.47
2023-01-29T04:56:54.097Z,60.50
2023-01-29T04:58:45.189Z,61.72
2023-01-29T05:00:20.698Z,63.85
2023-01-29T05:01:53.334Z,66.30
2023-01-29T05:03:26.399Z,64.22
2023-01-29T05:04:58.977Z,64.40
2023-01-29T05:06:31.724Z,61.92
2023-01-29T05:08:05.271Z,62.65
2023-01-29T05:09:37.642Z,69.13
2023-01-29T05:11:10.241Z,58.17
2023-01-29T05:12:44.369Z,60.60
2023-01-29T05:14:20.682Z,60.05
2023-01-29T05:16:05.019Z,64.90
2023-01-29T05:17:37.063Z,57.90
2023-01-29T05:19:14.015Z,46.47
2023-01-29T05:20:47.147Z,66.07
2023-01-29T05:22:22.960Z,67.20
2023-01-29T05:24:12.949Z,62.35
2023-01-29T05:25:48.270Z,63.63
2023-01-29T05:27:50.830Z,68.20
2023-01-29T05:29:22.945Z,65.97
2023-01-29T05:30:56.862Z,61.35
2023-01-29T05:32:28.889Z,61.10
2023-01-29T05:34:00.800Z,70.18
2023-01-29T05:35:33.326Z,68.10
2023-01-29T05:37:05.341Z,66.55
2023-01-29T05:38:37.237Z,67.23
2023-01-29T05:40:09.857Z,68.93
2023-01-29T05:41:42.007Z,66.78
2023-01-29T05:43:20.415Z,65.72
2023-01-29T05:44:52.530Z,67.72
2023-01-29T05:46:24.538Z,50.00
2023-01-29T05:48:00.302Z,59.28
2023-01-29T05:49:33.313Z,67.00
2023-01-29T05:51:05.463Z,60.08
2023-01-29T05:52:37.318Z,66.68
2023-01-29T05:54:12.483Z,62.00
2023-01-29T05:55:45.784Z,64.50
2023-01-29T05:57:17.692Z,64.75
2023-01-29T05:58:50.109Z,67.75
2023-01-29T06:00:22.278Z,68.75
2023-01-29T06:01:58.093Z,54.15
2023-01-29T06:03:30.064Z,69.63
2023-01-29T06:05:02.052Z,67.75
2023-01-29T06:06:33.998Z,71.67
2023-01-29T06:08:06.800Z,65.60
2023-01-29T06:09:38.672Z,69.03
2023-01-29T06:11:13.083Z,49.97
2023-01-29T06:12:44.984Z,62.65
2023-01-29T06:14:17.063Z,65.28
2023-01-29T06:15:49.317Z,66.63
2023-01-29T06:17:21.280Z,68.43
2023-01-29T06:18:53.382Z,65.30
2023-01-29T06:20:25.563Z,71.10
2023-01-29T06:21:57.634Z,71.47
2023-01-29T06:23:30.547Z,70.50
2023-01-29T06:26:34.224Z,67.43
2023-01-29T06:28:06.110Z,66.75
2023-01-29T06:29:38.257Z,63.38
2023-01-29T06:31:28.442Z,71.43
2023-01-29T06:33:03.000Z,72.88
2023-01-29T06:34:37.893Z,64.32
2023-01-29T06:36:10.047Z,62.38
2023-01-29T06:37:43.355Z,65.65
2023-01-29T06:39:15.275Z,71.28
2023-01-29T06:40:47.192Z,70.70
2023-01-29T06:42:19.666Z,62.17
2023-01-29T06:43:51.895Z,69.85
2023-01-29T06:45:24.289Z,68.70
2023-01-29T06:46:56.193Z,69.05
2023-01-29T06:48:27.986Z,66.63
2023-01-29T06:49:59.859Z,70.78
2023-01-29T06:51:31.836Z,65.47
2023-01-29T06:53:03.705Z,75.00
2023-01-29T06:54:35.559Z,74.10
2023-01-29T06:56:07.867Z,73.82
2023-01-29T06:57:39.723Z,73.82
2023-01-29T06:59:12.513Z,71.75
2023-01-29T07:00:44.350Z,68.50
2023-01-29T07:02:16.420Z,67.53
2023-01-29T07:03:51.076Z,73.70
2023-01-29T07:05:22.931Z,74.60
2023-01-29T07:06:54.836Z,71.88
2023-01-29T07:08:26.715Z,72.65
2023-01-29T07:09:58.605Z,70.78
2023-01-29T07:11:30.798Z,68.25
2023-01-29T07:13:02.672Z,72.22
2023-01-29T07:14:34.568Z,63.70
2023-01-29T07:16:07.749Z,70.47
2023-01-29T07:17:40.064Z,64.53
2023-01-29T07:19:11.969Z,66.78
2023-01-29T07:20:43.846Z,72.55
2023-01-29T07:22:16.515Z,70.80
2023-01-29T07:23:48.333Z,68.97
2023-01-29T07:25:21.346Z,75.65
2023-01-29T07:26:53.885Z,73.50
2023-01-29T07:28:25.857Z,75.28
2023-01-29T07:29:57.784Z,73.63
2023-01-29T07:31:29.973Z,72.57
2023-01-29T07:33:08.371Z,67.43
2023-01-29T07:34:40.282Z,69.70
2023-01-29T07:36:12.828Z,66.57
2023-01-29T07:37:44.841Z,77.57
2023-01-29T07:39:16.787Z,73.88
2023-01-29T07:40:49.244Z,73.67
2023-01-29T07:42:21.257Z,71.20
2023-01-29T07:43:53.342Z,70.75
2023-01-29T07:45:25.876Z,68.18
2023-01-29T07:47:00.238Z,75.13
2023-01-29T07:48:32.302Z,71.25
2023-01-29T07:50:05.999Z,72.05
2023-01-29T07:51:37.933Z,71.70
2023-01-29T07:53:15.241Z,57.47
2023-01-29T07:54:47.261Z,67.43
2023-01-29T07:56:19.252Z,72.83
2023-01-29T08:00:15.832Z,76.05
2023-01-29T08:01:48.067Z,74.55
2023-01-29T08:03:20.989Z,70.67
2023-01-29T08:04:53.035Z,70.50
2023-01-29T08:06:25.262Z,54.43
2023-01-29T08:08:06.107Z,74.35
2023-01-29T08:09:38.810Z,67.80
2023-01-29T08:11:10.827Z,75.80
2023-01-29T08:12:42.873Z,79.45
2023-01-29T08:14:15.063Z,71.03
2023-01-29T08:15:47.471Z,61.80
2023-01-29T08:17:19.623Z,75.50
2023-01-29T08:18:51.642Z,70.28
2023-01-29T08:20:23.703Z,80.60
2023-01-29T08:21:55.695Z,74.05
2023-01-29T08:23:27.745Z,71.23
2023-01-29T08:25:20.896Z,72.47
2023-01-29T08:26:51.917Z,75.25
2023-01-29T08:28:23.992Z,74.72
2023-01-29T08:29:55.935Z,75.80
2023-01-29T08:31:28.211Z,80.05
2023-01-29T08:33:00.307Z,73.43
2023-01-29T08:34:32.292Z,67.82
2023-01-29T08:36:04.573Z,70.38
2023-01-29T08:37:36.561Z,77.63
2023-01-29T08:39:08.642Z,83.38
2023-01-29T08:40:40.630Z,74.68
2023-01-29T08:42:12.658Z,79.00
2023-01-29T08:43:50.788Z,60.80
2023-01-29T08:45:22.842Z,71.93
2023-01-29T08:46:54.724Z,78.10
2023-01-29T08:48:27.100Z,77.75
2023-01-29T08:49:59.159Z,72.28
2023-01-29T08:51:31.302Z,74.93
2023-01-29T08:53:05.576Z,75.55
2023-01-29T08:54:37.615Z,72.97
2023-01-29T08:56:09.960Z,70.90
2023-01-29T08:57:42.239Z,79.47
2023-01-29T08:59:14.634Z,74.32
2023-01-29T09:00:46.794Z,57.58
2023-01-29T09:02:18.811Z,74.60
2023-01-29T09:03:52.633Z,75.87
2023-01-29T09:05:35.404Z,77.03
2023-01-29T09:07:07.586Z,67.55
2023-01-29T09:08:40.048Z,68.60
2023-01-29T09:10:12.592Z,73.80
2023-01-29T09:11:44.851Z,73.20
2023-01-29T09:13:18.310Z,69.88
2023-01-29T09:14:50.336Z,75.70
2023-01-29T09:16:22.570Z,63.43
2023-01-29T09:17:54.773Z,71.18
2023-01-29T09:19:26.888Z,68.32
2023-01-29T09:20:58.969Z,73.03
2023-01-29T09:22:32.312Z,73.20
2023-01-29T09:24:04.817Z,72.85
2023-01-29T09:25:37.613Z,73.95
2023-01-29T09:27:10.253Z,78.28
2023-01-29T09:28:42.207Z,74.72
2023-01-29T09:30:14.791Z,74.27
2023-01-29T09:31:47.251Z,74.70
2023-01-29T09:33:19.964Z,70.03
2023-01-29T09:34:52.131Z,72.50
2023-01-29T09:36:24.207Z,71.68
2023-01-29T09:37:56.536Z,73.72
2023-01-29T09:39:28.641Z,69.82
2023-01-29T09:41:09.465Z,77.45
2023-01-29T09:42:45.530Z,78.57
2023-01-29T09:44:25.557Z,76.28
2023-01-29T09:46:30.004Z,71.97
2023-01-29T09:48:03.872Z,74.80
2023-01-29T09:49:42.625Z,75.75
2023-01-29T09:51:28.092Z,82.15
2023-01-29T09:53:42.846Z,72.82
2023-01-29T09:55:39.043Z,70.70
2023-01-29T09:57:18.060Z,72.25
2023-01-29T09:58:50.125Z,71.20
2023-01-29T10:00:48.939Z,77.05
2023-01-29T10:02:41.506Z,72.78
2023-01-29T10:04:37.226Z,74.10
2023-01-29T10:06:33.499Z,66.53
2023-01-29T10:08:25.014Z,73.18
2023-01-29T10:10:30.237Z,72.93
2023-01-29T10:12:16.792Z,70.65
2023-01-29T10:13:59.334Z,76.30
2023-01-29T10:15:43.429Z,76.88
2023-01-29T10:17:33.212Z,69.85
2023-01-29T10:19:05.311Z,67.07
2023-01-29T10:20:43.824Z,77.03
2023-01-29T10:22:52.462Z,72.32
2023-01-29T10:24:39.315Z,69.72
2023-01-29T10:26:12.202Z,71.00
2023-01-29T10:29:22.320Z,71.03
2023-01-29T10:31:01.651Z,66.47
2023-01-29T10:32:35.970Z,69.60
2023-01-29T10:34:14.843Z,71.53
2023-01-29T10:35:54.710Z,68.03
2023-01-29T10:37:37.745Z,65.57
2023-01-29T10:39:17.666Z,70.87
2023-01-29T10:41:10.682Z,68.97
2023-01-29T10:42:47.933Z,65.28
2023-01-29T10:44:43.798Z,68.13
2023-01-29T10:46:35.285Z,66.03
2023-01-29T10:48:31.844Z,68.20
2023-01-29T10:50:39.817Z,66.70
2023-01-29T10:52:42.348Z,68.28
2023-01-29T10:54:29.547Z,57.65
2023-01-29T10:56:32.133Z,64.32
2023-01-29T10:58:28.053Z,64.13
2023-01-29T11:00:13.132Z,66.43
2023-01-29T11:01:45.195Z,64.78
2023-01-29T11:03:27.871Z,52.75
2023-01-29T11:06:34.748Z,66.95
2023-01-29T11:08:16.130Z,66.75
2023-01-29T11:10:05.550Z,60.30
2023-01-29T11:11:45.358Z,62.42
2023-01-29T11:13:18.863Z,66.85
2023-01-29T11:14:54.987Z,63.08
2023-01-29T11:16:30.418Z,65.15
2023-01-29T11:18:20.502Z,70.95
2023-01-29T11:19:53.584Z,62.45
2023-01-29T11:21:26.760Z,61.40
2023-01-29T11:22:59.551Z,68.57
2023-01-29T11:24:31.640Z,69.45
2023-01-29T11:26:05.097Z,67.57
2023-01-29T11:27:57.560Z,61.17
2023-01-29T11:29:39.818Z,58.00
2023-01-29T11:31:29.868Z,63.95
2023-01-29T11:33:08.576Z,60.22
2023-01-29T11:35:01.249Z,63.05
2023-01-29T11:36:38.392Z,62.40
2023-01-29T11:38:23.397Z,65.68
2023-01-29T11:39:55.475Z,58.55
2023-01-29T11:41:27.739Z,66.30
2023-01-29T11:43:31.328Z,65.65
2023-01-29T11:45:03.763Z,61.72
2023-01-29T11:46:35.980Z,64.63
2023-01-29T11:48:19.187Z,53.97
2023-01-29T11:50:02.333Z,60.45
2023-01-29T11:51:35.402Z,56.63
2023-01-29T11:53:07.983Z,63.72
2023-01-29T11:54:54.305Z,57.90
2023-01-29T11:56:43.377Z,53.97
2023-01-29T11:58:24.134Z,61.05
2023-01-29T12:00:00.138Z,56.60
2023-01-29T12:01:36.612Z,53.40
2023-01-29T12:03:14.316Z,55.10
2023-01-29T12:04:47.153Z,56.53
2023-01-29T12:06:22.735Z,56.20
2023-01-29T12:08:02.446Z,52.42
2023-01-29T12:09:34.582Z,55.50
2023-01-29T12:11:13.583Z,56.90
2023-01-29T12:12:45.715Z,56.38
2023-01-29T12:14:34.664Z,53.23
2023-01-29T12:16:31.601Z,58.53
2023-01-29T12:18:33.535Z,55.72
2023-01-29T12:20:25.107Z,55.50
2023-01-29T12:22:21.131Z,52.05
2023-01-29T12:23:59.120Z,52.90
2023-01-29T12:25:43.071Z,56.30
2023-01-29T12:27:25.175Z,60.15
2023-01-29T12:29:12.765Z,50.88
2023-01-29T12:31:37.926Z,51.45
2023-01-29T12:33:47.193Z,49.50
2023-01-29T12:35:26.327Z,48.67
2023-01-29T12:37:26.218Z,57.65
2023-01-29T12:38:59.805Z,53.55
2023-01-29T12:40:56.579Z,52.20
2023-01-29T12:42:30.243Z,49.70
2023-01-29T12:44:16.684Z,50.00
2023-01-29T12:45:52.668Z,54.75
2023-01-29T12:47:31.852Z,52.60
2023-01-29T12:49:11.565Z,54.30
2023-01-29T12:50:43.706Z,51.97
2023-01-29T12:52:19.750Z,57.25
2023-01-29T12:54:17.230Z,47.55
2023-01-29T12:55:55.743Z,51.95
2023-01-29T12:58:03.256Z,49.70
2023-01-29T12:59:43.968Z,54.40
2023-01-29T13:01:27.927Z,56.65
2023-01-29T13:03:01.946Z,54.92
2023-01-29T13:04:38.360Z,49.50
2023-01-29T13:06:13.964Z,51.03
2023-01-29T13:07:50.400Z,50.33
2023-01-29T13:09:28.313Z,53.08
2023-01-29T13:11:02.459Z,56.40
2023-01-29T13:12:35.210Z,53.30
2023-01-29T13:14:17.450Z,48.97
2023-01-29T13:15:49.575Z,47.83
2023-01-29T13:17:36.155Z,52.05
2023-01-29T13:19:20.220Z,50.03
2023-01-29T13:20:52.202Z,54.85
2023-01-29T13:22:29.992Z,51.93
2023-01-29T13:24:22.448Z,47.85
2023-01-29T13:25:55.015Z,57.95
2023-01-29T13:27:29.251Z,47.80
2023-01-29T13:29:01.808Z,52.30
2023-01-29T13:30:35.318Z,54.75
2023-01-29T13:32:08.346Z,52.60
2023-01-29T13:33:42.454Z,54.70
2023-01-29T13:35:15.736Z,47.90
2023-01-29T13:36:59.101Z,58.17
2023-01-29T13:38:33.539Z,51.15
2023-01-29T13:40:08.979Z,47.17
2023-01-29T13:41:42.850Z,52.55
2023-01-29T13:43:20.796Z,52.53
2023-01-29T13:44:57.144Z,56.42
2023-01-29T13:46:30.142Z,51.88
2023-01-29T13:50:01.634Z,50.53
2023-01-29T13:51:36.366Z,52.17
2023-01-29T13:53:09.673Z,49.92
2023-01-29T13:54:42.111Z,51.72
2023-01-29T13:56:35.691Z,51.53
2023-01-29T13:58:14.942Z,51.78
2023-01-29T13:59:55.493Z,52.42
2023-01-29T14:01:48.901Z,50.92
2023-01-29T14:03:23.568Z,48.90
2023-01-29T14:05:33.912Z,49.28
2023-01-29T14:07:44.112Z,54.55
2023-01-29T14:10:02.317Z,53.65
2023-01-29T14:11:36.096Z,52.72
2023-01-29T14:13:20.086Z,57.80
2023-01-29T14:15:18.365Z,57.50
2023-01-29T14:16:52.805Z,52.83
2023-01-29T14:18:28.582Z,52.15
2023-01-29T14:20:17.668Z,54.40
2023-01-29T14:21:50.525Z,53.45
2023-01-29T14:23:42.533Z,51.50
2023-01-29T14:25:19.150Z,50.70
2023-01-29T14:26:55.882Z,48.45
2023-01-29T14:28:30.774Z,52.80
2023-01-29T14:30:07.697Z,49.45
2023-01-29T14:31:45.342Z,47.35
2023-01-29T14:33:28.752Z,44.25
2023-01-29T14:36:41.191Z,47.60
2023-01-29T14:38:15.041Z,50.25
2023-01-29T14:39:52.533Z,50.90
2023-01-29T14:41:30.517Z,49.45
2023-01-29T14:43:09.845Z,52.97
2023-01-29T14:44:44.554Z,49.88
2023-01-29T14:46:35.122Z,44.05
2023-01-29T14:48:09.915Z,48.03
2023-01-29T14:50:02.221Z,47.75
2023-01-29T14:51:37.730Z,44.28
2023-01-29T14:53:24.753Z,46.97
2023-01-29T14:55:00.473Z,47.22
2023-01-29T14:56:37.061Z,46.42
2023-01-29T14:58:16.045Z,41.92
2023-01-29T14:59:59.634Z,48.05
2023-01-29T15:01:47.576Z,41.00
2023-01-29T15:03:25.320Z,43.40
2023-01-29T15:05:05.443Z,45.28
2023-01-29T15:06:48.579Z,48.00
2023-01-29T15:08:30.261Z,42.35
2023-01-29T15:10:23.050Z,44.83
2023-01-29T15:12:23.234Z,45.28
2023-01-29T15:14:02.903Z,39.15
2023-01-29T15:15:56.454Z,45.70
2023-01-29T15:17:46.536Z,37.28
2023-01-29T15:19:24.236Z,47.80
2023-01-29T15:21:15.088Z,47.78
2023-01-29T15:22:46.956Z,43.20
2023-01-29T15:24:18.841Z,46.92
2023-01-29T15:25:53.353Z,44.65
2023-01-29T15:27:25.326Z,46.63
2023-01-29T15:29:04.329Z,47.78
2023-01-29T15:30:38.006Z,46.33
2023-01-29T15:33:46.733Z,45.60
2023-01-29T15:35:31.867Z,44.95
2023-01-29T15:37:04.348Z,44.80
2023-01-29T15:38:36.372Z,45.33
2023-01-29T15:40:15.685Z,46.00
2023-01-29T15:41:48.029Z,48.13
2023-01-29T15:43:30.626Z,48.97
2023-01-29T15:45:03.554Z,47.00
2023-01-29T15:48:24.193Z,48.58
2023-01-29T15:49:57.515Z,43.17
2023-01-29T15:51:29.467Z,46.58
2023-01-29T15:53:04.359Z,46.13
2023-01-29T15:54:36.516Z,52.45
2023-01-29T15:56:10.762Z,48.22
2023-01-29T15:57:44.231Z,48.22
2023-01-29T15:59:25.235Z,47.53
2023-01-29T16:00:58.474Z,51.45
2023-01-29T16:02:36.389Z,48.53
2023-01-29T16:04:13.481Z,47.38
2023-01-29T16:05:45.437Z,50.85
2023-01-29T16:07:17.988Z,48.70
2023-01-29T16:08:52.318Z,47.40
2023-01-29T16:10:28.956Z,54.13
2023-01-29T16:12:01.055Z,48.83
2023-01-29T16:13:37.385Z,51.47
2023-01-29T16:15:30.022Z,47.78
2023-01-29T16:17:24.030Z,42.90
2023-01-29T16:19:00.762Z,51.53
2023-01-29T16:20:38.251Z,46.90
2023-01-29T16:22:10.261Z,43.97
2023-01-29T16:23:46.537Z,47.20
2023-01-29T16:25:19.120Z,45.97
2023-01-29T16:26:53.887Z,42.83
2023-01-29T16:28:25.865Z,42.17
2023-01-29T16:29:58.018Z,46.40
2023-01-29T16:31:33.297Z,56.17
2023-01-29T16:33:06.931Z,46.72
2023-01-29T16:34:41.056Z,47.33
2023-01-29T16:36:19.683Z,48.00
2023-01-29T16:37:53.342Z,44.47
2023-01-29T16:39:28.397Z,45.17
2023-01-29T16:41:22.090Z,43.17
2023-01-29T16:43:31.331Z,41.78
2023-01-29T16:45:12.870Z,46.67
2023-01-29T16:46:49.229Z,44.50
2023-01-29T16:48:31.264Z,44.17
2023-01-29T16:50:36.076Z,46.92
2023-01-29T16:52:23.774Z,48.63
2023-01-29T16:54:07.148Z,45.85
2023-01-29T16:57:22.000Z,46.30
2023-01-29T16:58:54.329Z,42.88
2023-01-29T17:00:28.346Z,41.15
2023-01-29T17:02:00.630Z,41.30
2023-01-29T17:03:34.534Z,44.42
2023-01-29T17:05:20.201Z,42.05
2023-01-29T17:06:58.068Z,44.78
2023-01-29T17:08:35.840Z,42.97
2023-01-29T17:10:08.386Z,42.38
2023-01-29T17:11:41.919Z,45.63
2023-01-29T17:13:21.762Z,39.53
2023-01-29T17:15:03.144Z,42.30
2023-01-29T17:16:38.738Z,45.67
2023-01-29T17:18:38.264Z,46.28
2023-01-29T17:20:17.020Z,38.30
2023-01-29T17:21:49.101Z,45.53
2023-01-29T17:23:21.850Z,44.63
2023-01-29T17:24:54.153Z,44.10
2023-01-29T17:26:27.802Z,39.25
2023-01-29T17:28:01.946Z,44.20
2023-01-29T17:29:36.292Z,42.65
2023-01-29T17:31:08.916Z,49.97
2023-01-29T17:32:47.484Z,39.83
2023-01-29T17:34:20.361Z,50.33
2023-01-29T17:36:01.480Z,45.70
2023-01-29T17:37:36.553Z,49.30
2023-01-29T17:39:26.904Z,41.03
2023-01-29T17:41:09.604Z,41.70
2023-01-29T17:42:41.827Z,42.80
2023-01-29T17:44:14.002Z,42.95
2023-01-29T17:45:46.951Z,42.90
2023-01-29T17:47:31.459Z,40.53
2023-01-29T17:49:04.950Z,41.13
2023-01-29T17:50:39.130Z,41.85
2023-01-29T17:52:13.720Z,40.72
2023-01-29T17:53:47.189Z,43.00
2023-01-29T17:55:19.994Z,41.60
2023-01-29T17:56:53.252Z,42.38
2023-01-29T17:58:27.033Z,41.22
2023-01-29T17:59:59.089Z,44.05
2023-01-29T18:01:31.503Z,39.90
2023-01-29T18:03:03.921Z,46.92
2023-01-29T18:04:38.533Z,42.13
2023-01-29T18:06:12.890Z,42.17
2023-01-29T18:07:46.760Z,43.70
2023-01-29T18:09:21.030Z,43.85
2023-01-29T18:10:53.110Z,43.83
2023-01-29T18:12:27.422Z,38.40
2023-01-29T18:13:59.386Z,41.33
2023-01-29T18:15:36.654Z,41.92
2023-01-29T18:17:08.777Z,44.65
2023-01-29T18:18:40.897Z,40.67
2023-01-29T18:20:18.575Z,42.15
2023-01-29T18:21:50.822Z,44.95
2023-01-29T18:23:23.171Z,31.95
2023-01-29T18:24:57.114Z,32.28
2023-01-29T18:26:29.250Z,34.63
2023-01-29T18:28:02.100Z,46.35
2023-01-29T18:31:06.372Z,40.13
2023-01-29T18:32:38.894Z,40.20
2023-01-29T18:34:10.969Z,41.88
2023-01-29T18:35:47.027Z,38.88
2023-01-29T18:37:19.032Z,40.30
2023-01-29T18:38:51.013Z,40.15
2023-01-29T18:40:23.072Z,40.67
2023-01-29T18:41:55.371Z,38.35
2023-01-29T18:43:27.443Z,38.47
2023-01-29T18:45:08.180Z,30.07
2023-01-29T18:46:40.179Z,40.28
2023-01-29T18:48:12.139Z,42.30
2023-01-29T18:49:44.232Z,38.77
2023-01-29T18:51:16.201Z,35.80
2023-01-29T18:52:49.561Z,31.40
2023-01-29T18:54:21.809Z,38.65
2023-01-29T18:55:56.736Z,38.58
2023-01-29T18:58:27.426Z,39.28
2023-01-29T18:59:21.278Z,37.35
2023-01-29T19:00:54.091Z,40.20
2023-01-29T19:02:26.707Z,38.50
2023-01-29T19:04:02.056Z,38.38
2023-01-29T19:05:34.397Z,40.22
2023-01-29T19:07:06.762Z,37.03
2023-01-29T19:08:39.457Z,43.08
2023-01-29T19:10:12.950Z,43.28
2023-01-29T19:11:44.959Z,39.58
2023-01-29T19:13:17.057Z,38.83
2023-01-29T19:14:49.060Z,42.10
2023-01-29T19:16:22.415Z,40.33
2023-01-29T19:17:54.948Z,37.22
2023-01-29T19:19:27.666Z,43.97
2023-01-29T19:20:59.772Z,38.83
2023-01-29T19:22:32.546Z,35.55
2023-01-29T19:24:05.016Z,43.30
2023-01-29T19:25:39.238Z,40.92
2023-01-29T19:27:11.912Z,43.25
2023-01-29T19:28:55.385Z,40.35
2023-01-29T19:30:28.880Z,43.28
2023-01-29T19:32:00.920Z,40.55
2023-01-29T19:33:33.185Z,39.07
2023-01-29T19:35:05.859Z,37.15
2023-01-29T19:36:37.881Z,43.80
2023-01-29T19:38:09.966Z,43.97
2023-01-29T19:39:41.988Z,41.53
2023-01-29T19:41:14.033Z,48.03
2023-01-29T19:42:46.091Z,39.95
2023-01-29T19:44:18.200Z,40.85
2023-01-29T19:45:53.147Z,43.03
2023-01-29T19:47:25.176Z,40.10
2023-01-29T19:48:59.012Z,41.75
2023-01-29T19:50:31.046Z,43.25
2023-01-29T19:52:03.206Z,46.40
2023-01-29T19:53:39.979Z,41.15
2023-01-29T19:55:21.170Z,39.35
2023-01-29T19:56:53.675Z,43.20
2023-01-29T19:58:28.676Z,41.30
2023-01-29T20:00:01.692Z,40.63
2023-01-29T20:01:36.316Z,47.58
2023-01-29T20:03:08.390Z,39.95
2023-01-29T20:04:40.364Z,41.20
2023-01-29T20:06:12.767Z,44.88
2023-01-29T20:07:45.204Z,38.90
2023-01-29T20:09:17.896Z,50.28
2023-01-29T20:10:49.919Z,44.78
2023-01-29T20:12:22.082Z,39.23
2023-01-29T20:13:54.607Z,46.03
2023-01-29T20:15:26.691Z,42.35
2023-01-29T20:16:58.613Z,37.67
2023-01-29T20:18:30.874Z,43.47
2023-01-29T20:20:04.170Z,43.40
2023-01-29T20:21:37.711Z,42.90
2023-01-29T20:23:11.041Z,39.08
2023-01-29T20:24:43.109Z,37.85
2023-01-29T20:26:16.831Z,33.33
2023-01-29T20:27:48.895Z,39.78
2023-01-29T20:29:20.953Z,43.00
2023-01-29T20:30:56.647Z,39.45
2023-01-29T20:32:28.828Z,42.55
2023-01-29T20:34:00.921Z,37.70
2023-01-29T20:35:34.699Z,41.08
2023-01-29T20:37:07.708Z,39.40
2023-01-29T20:38:39.751Z,42.25
2023-01-29T20:40:12.492Z,44.30
2023-01-29T20:41:44.447Z,38.83
2023-01-29T20:43:16.515Z,37.63
2023-01-29T20:44:48.520Z,44.47
2023-01-29T20:46:20.956Z,42.80
2023-01-29T20:47:52.942Z,47.13
2023-01-29T20:49:25.065Z,41.83
2023-01-29T20:51:08.221Z,43.22
2023-01-29T20:52:41.159Z,40.17
2023-01-29T20:54:13.427Z,46.53
2023-01-29T20:55:45.996Z,39.88
2023-01-29T20:57:18.686Z,43.67
2023-01-29T20:58:52.808Z,43.80
2023-01-29T21:00:24.846Z,40.22
2023-01-29T21:01:56.917Z,46.70
2023-01-29T21:03:30.132Z,41.47
2023-01-29T21:05:02.255Z,41.60
2023-01-29T21:06:39.913Z,41.30
2023-01-29T21:08:12.288Z,39.20
2023-01-29T21:09:44.415Z,38.40
2023-01-29T21:11:16.476Z,40.33
2023-01-29T21:12:48.524Z,43.30
2023-01-29T21:14:20.758Z,43.78
2023-01-29T21:15:52.809Z,41.75
2023-01-29T21:17:26.200Z,46.20
2023-01-29T21:19:00.159Z,43.33
2023-01-29T21:20:33.001Z,51.78
2023-01-29T21:23:40.070Z,44.22
2023-01-29T21:25:12.454Z,41.63